Time;durP1;ratioP1;P1;durP2;ratioP2;P2;SDS_P1;SDS_P2;PMS_P1;PMS_P2;Temp;Humidity;BMP_temperature;BMP_pressure;BME280_temperature;BME280_humidity;BME280_pressure;Samples;Min_cycle;Max_cycle;Signal;HPM_P1;HPM_P2
2022/01/01 00:00:54;;;;;;;24.83;15.10;;;12.40;99.90;;;;;;5051432;28;20923;-74
2022/01/01 00:03:42;;;;;;;28.67;17.73;;;12.40;99.90;;;;;;5049296;28;20915;-73
2022/01/01 00:06:27;;;;;;;22.00;15.00;;;12.40;99.90;;;;;;5048932;28;20434;-74
2022/01/01 00:09:13;;;;;;;29.10;18.83;;;12.40;99.90;;;;;;5051190;28;20456;-74
2022/01/01 00:11:59;;;;;;;19.93;14.13;;;12.40;99.90;;;;;;5051209;28;20932;-74
2022/01/01 00:14:44;;;;;;;21.63;15.80;;;12.40;99.90;;;;;;5047543;28;20918;-73
2022/01/01 00:17:30;;;;;;;28.00;17.23;;;12.40;99.90;;;;;;5031360;28;20395;-74
2022/01/01 00:20:18;;;;;;;25.67;17.20;;;12.40;99.90;;;;;;5031210;28;20542;-73
2022/01/01 00:23:03;;;;;;;22.50;16.63;;;12.50;99.90;;;;;;5031024;28;20395;-73
2022/01/01 00:25:49;;;;;;;23.87;18.20;;;12.50;99.90;;;;;;5035264;28;20524;-74
2022/01/01 00:28:35;;;;;;;24.07;16.60;;;12.50;99.90;;;;;;5048042;28;20402;-74
2022/01/01 00:31:20;;;;;;;22.37;16.97;;;12.50;99.90;;;;;;5054993;28;20450;-73
2022/01/01 00:34:06;;;;;;;23.43;15.57;;;12.50;99.90;;;;;;5052785;28;20424;-73
2022/01/01 00:36:53;;;;;;;20.77;15.00;;;12.50;99.90;;;;;;5054605;28;20438;-74
2022/01/01 00:39:39;;;;;;;22.07;14.70;;;12.40;99.90;;;;;;5055030;28;20835;-74
2022/01/01 00:42:24;;;;;;;27.90;16.40;;;12.30;99.90;;;;;;5054544;28;20866;-73
2022/01/01 00:45:11;;;;;;;21.80;16.30;;;12.30;99.90;;;;;;5043956;28;20836;-74
2022/01/01 00:47:57;;;;;;;24.50;16.83;;;12.30;99.90;;;;;;5034810;28;20503;-73
2022/01/01 00:50:42;;;;;;;24.13;16.10;;;12.40;99.90;;;;;;5034622;28;20440;-74
2022/01/01 00:53:30;;;;;;;21.33;16.13;;;12.40;99.90;;;;;;5034226;28;20448;-73
2022/01/01 00:56:15;;;;;;;18.00;16.07;;;12.40;99.90;;;;;;5039177;28;20745;-73
2022/01/01 00:59:01;;;;;;;20.87;14.67;;;12.30;99.90;;;;;;5054326;28;20398;-73
2022/01/01 01:01:46;;;;;;;22.93;14.53;;;12.30;99.90;;;;;;5054093;28;20505;-73
2022/01/01 01:04:32;;;;;;;20.97;15.13;;;12.30;99.90;;;;;;5044733;28;20444;-73
2022/01/01 01:07:18;;;;;;;22.10;15.13;;;12.30;99.90;;;;;;5036335;28;20486;-73
2022/01/01 01:10:06;;;;;;;18.80;14.63;;;12.40;99.90;;;;;;5054165;28;20428;-74
2022/01/01 01:12:53;;;;;;;23.10;15.77;;;12.40;99.90;;;;;;5053881;28;21056;-73
2022/01/01 01:15:39;;;;;;;23.80;15.70;;;12.30;99.90;;;;;;5051809;28;20826;-74
2022/01/01 01:18:25;;;;;;;22.33;15.00;;;12.30;99.90;;;;;;5053875;28;20424;-73
2022/01/01 01:21:11;;;;;;;21.50;14.63;;;12.20;99.90;;;;;;5054081;28;20448;-74
2022/01/01 01:23:56;;;;;;;19.57;14.20;;;12.20;99.90;;;;;;5051342;28;20451;-74
2022/01/01 01:26:48;;;;;;;24.10;13.23;;;12.30;99.90;;;;;;5054962;28;20403;-74
2022/01/01 01:29:38;;;;;;;22.70;14.90;;;12.30;99.90;;;;;;5053506;28;20441;-73
2022/01/01 01:32:23;;;;;;;18.10;13.63;;;12.20;99.90;;;;;;5053598;28;20406;-74
2022/01/01 01:35:10;;;;;;;16.70;11.40;;;12.30;99.90;;;;;;5051128;28;20455;-73
2022/01/01 01:37:56;;;;;;;19.40;12.20;;;12.20;99.90;;;;;;5052793;28;20461;-74
2022/01/01 01:40:42;;;;;;;20.80;12.20;;;12.20;99.90;;;;;;5053565;28;20859;-74
2022/01/01 01:43:28;;;;;;;19.40;12.57;;;12.20;99.90;;;;;;5050075;28;20960;-73
2022/01/01 01:46:14;;;;;;;15.90;11.13;;;12.30;99.90;;;;;;5033740;28;20416;-74
2022/01/01 01:49:03;;;;;;;14.50;10.43;;;12.30;99.90;;;;;;5033490;28;20417;-73
2022/01/01 01:51:49;;;;;;;19.40;11.07;;;12.30;99.90;;;;;;5033368;28;20435;-73
2022/01/01 01:54:35;;;;;;;14.47;10.73;;;12.30;99.90;;;;;;5045965;28;20509;-73
2022/01/01 01:57:21;;;;;;;12.93;9.50;;;12.30;99.90;;;;;;5054413;28;20402;-74
2022/01/01 02:00:21;;;;;;;16.00;10.50;;;12.30;99.90;;;;;;5052981;28;20587;-74
2022/01/01 02:03:09;;;;;;;15.73;10.00;;;12.30;99.90;;;;;;5050566;28;20427;-74
2022/01/01 02:05:55;;;;;;;13.10;8.53;;;12.30;99.90;;;;;;5053441;28;20399;-74
2022/01/01 02:08:41;;;;;;;12.17;9.10;;;12.40;99.90;;;;;;5053361;28;20927;-74
2022/01/01 02:11:29;;;;;;;10.67;7.40;;;12.40;99.90;;;;;;5053150;28;20932;-73
2022/01/01 02:14:21;;;;;;;12.10;8.60;;;12.30;99.90;;;;;;5040098;28;20431;-74
2022/01/01 02:17:10;;;;;;;11.13;8.43;;;12.30;99.90;;;;;;5033017;28;20424;-74
2022/01/01 02:20:01;;;;;;;15.33;9.33;;;12.30;99.90;;;;;;5033019;28;20526;-75
2022/01/01 02:22:50;;;;;;;11.77;9.10;;;12.30;99.90;;;;;;5034627;28;20426;-74
2022/01/01 02:25:36;;;;;;;12.83;9.80;;;12.30;99.90;;;;;;5032935;28;20783;-74
2022/01/01 02:28:23;;;;;;;11.57;8.20;;;12.30;99.90;;;;;;5053002;28;20539;-74
2022/01/01 02:31:08;;;;;;;12.43;9.37;;;12.20;99.90;;;;;;5053138;28;20454;-73
2022/01/01 02:33:55;;;;;;;11.43;8.53;;;12.20;99.90;;;;;;5039705;28;20478;-73
2022/01/01 02:36:42;;;;;;;16.30;8.97;;;12.30;99.90;;;;;;5033127;28;20922;-73
2022/01/01 02:39:29;;;;;;;14.00;8.67;;;12.30;99.90;;;;;;5032428;28;20931;-73
2022/01/01 02:42:18;;;;;;;14.93;8.90;;;12.20;99.90;;;;;;5032380;28;20404;-73
2022/01/01 02:45:07;;;;;;;11.03;7.40;;;12.10;99.90;;;;;;5032383;28;20496;-73
2022/01/01 02:47:53;;;;;;;9.87;7.70;;;12.10;99.90;;;;;;5032494;28;20417;-73
2022/01/01 02:50:38;;;;;;;12.20;7.10;;;12.10;99.90;;;;;;5032334;28;20519;-73
2022/01/01 02:53:24;;;;;;;12.50;8.13;;;12.20;99.90;;;;;;5032573;28;20452;-73
2022/01/01 02:56:11;;;;;;;12.50;7.33;;;12.10;99.90;;;;;;5035923;28;20428;-71
2022/01/01 02:58:57;;;;;;;12.33;8.50;;;12.10;99.90;;;;;;5052162;28;20420;-72
2022/01/01 03:01:43;;;;;;;11.00;7.73;;;12.10;99.90;;;;;;5051811;28;21015;-72
2022/01/01 03:04:28;;;;;;;12.10;7.70;;;12.20;99.90;;;;;;5050852;28;21002;-72
2022/01/01 03:07:14;;;;;;;15.20;7.33;;;12.20;99.90;;;;;;5052221;28;20458;-71
2022/01/01 03:10:00;;;;;;;10.20;7.70;;;12.20;99.90;;;;;;5051853;28;20438;-71
2022/01/01 03:12:47;;;;;;;17.47;7.43;;;12.20;99.90;;;;;;5043729;28;20515;-72
2022/01/01 03:15:33;;;;;;;13.03;7.10;;;12.20;99.90;;;;;;5041521;28;20936;-72
2022/01/01 03:18:19;;;;;;;12.40;7.80;;;12.20;99.90;;;;;;5051503;28;20422;-72
2022/01/01 03:21:05;;;;;;;12.70;8.07;;;12.20;99.90;;;;;;5051685;28;20558;-72
2022/01/01 03:23:50;;;;;;;9.90;6.70;;;12.20;99.90;;;;;;5049350;28;20586;-72
2022/01/01 03:26:36;;;;;;;11.73;6.90;;;12.10;99.90;;;;;;5052943;28;20435;-72
2022/01/01 03:29:23;;;;;;;15.50;7.93;;;12.10;99.90;;;;;;5051444;28;20541;-71
2022/01/01 03:32:09;;;;;;;13.30;7.43;;;12.10;99.90;;;;;;5047729;28;20418;-72
2022/01/01 03:34:56;;;;;;;11.67;7.77;;;12.20;99.90;;;;;;5051717;28;20419;-72
2022/01/01 03:37:42;;;;;;;11.20;7.10;;;12.10;99.90;;;;;;5051738;28;20419;-71
2022/01/01 03:40:27;;;;;;;9.40;6.10;;;12.10;99.90;;;;;;5051687;28;20446;-71
2022/01/01 03:43:13;;;;;;;17.10;6.53;;;12.10;99.90;;;;;;5035844;28;20495;-72
2022/01/01 03:46:00;;;;;;;12.10;6.67;;;12.00;99.90;;;;;;5031790;28;20938;-71
2022/01/01 03:48:46;;;;;;;14.40;6.70;;;12.00;99.90;;;;;;5031594;28;20530;-71
2022/01/01 03:51:31;;;;;;;10.57;6.60;;;11.90;99.90;;;;;;5033716;28;20459;-72
2022/01/01 03:54:17;;;;;;;11.13;7.60;;;11.90;99.90;;;;;;5051358;28;20915;-71
2022/01/01 03:57:02;;;;;;;11.87;7.20;;;11.90;99.90;;;;;;5052546;28;20431;-72
2022/01/01 03:59:49;;;;;;;10.87;6.50;;;11.90;99.90;;;;;;5051151;28;21049;-71
2022/01/01 04:02:36;;;;;;;9.90;7.07;;;11.80;99.90;;;;;;5042393;28;20435;-72
2022/01/01 04:05:21;;;;;;;10.17;6.40;;;11.80;99.90;;;;;;5033708;28;20412;-72
2022/01/01 04:08:08;;;;;;;11.70;6.93;;;11.90;99.90;;;;;;5035829;28;20421;-71
2022/01/01 04:10:53;;;;;;;8.90;6.90;;;11.90;99.90;;;;;;5034875;28;20444;-72
2022/01/01 04:13:39;;;;;;;9.17;7.40;;;11.90;99.90;;;;;;5035138;28;20408;-72
2022/01/01 04:16:25;;;;;;;7.53;5.77;;;11.90;99.90;;;;;;5035328;28;20420;-72
2022/01/01 04:19:11;;;;;;;10.03;6.00;;;11.90;99.90;;;;;;5035341;28;20420;-72
2022/01/01 04:21:57;;;;;;;9.70;6.03;;;11.80;99.90;;;;;;5036833;28;21075;-72
2022/01/01 04:24:43;;;;;;;8.03;6.00;;;11.80;99.90;;;;;;5035189;28;20420;-72
2022/01/01 04:27:28;;;;;;;14.27;6.97;;;11.90;99.90;;;;;;5049667;28;20481;-72
2022/01/01 04:30:14;;;;;;;10.07;6.33;;;11.80;99.90;;;;;;5054680;28;20437;-72
2022/01/01 04:33:00;;;;;;;8.30;6.60;;;11.80;99.90;;;;;;5053790;28;20535;-72
2022/01/01 04:35:47;;;;;;;11.77;7.60;;;11.80;99.90;;;;;;5055403;28;20415;-73
2022/01/01 04:38:38;;;;;;;18.93;7.20;;;11.80;99.90;;;;;;5054904;28;20522;-73
2022/01/01 04:41:23;;;;;;;12.60;6.80;;;11.70;99.90;;;;;;5052340;28;20594;-71
2022/01/01 04:44:09;;;;;;;11.33;7.00;;;11.70;99.90;;;;;;5054696;28;20431;-72
2022/01/01 04:46:55;;;;;;;13.83;6.40;;;11.70;99.90;;;;;;5054634;28;20844;-72
2022/01/01 04:49:40;;;;;;;17.80;8.60;;;11.70;99.90;;;;;;5054877;28;20421;-72
2022/01/01 04:52:27;;;;;;;11.80;7.03;;;11.60;99.90;;;;;;5038199;28;20516;-72
2022/01/01 04:55:13;;;;;;;11.47;6.63;;;11.70;99.90;;;;;;5034922;28;20408;-72
2022/01/01 04:57:58;;;;;;;9.10;6.30;;;11.60;99.90;;;;;;5052982;28;20447;-72
2022/01/01 05:00:44;;;;;;;10.23;6.60;;;11.70;99.90;;;;;;5036333;28;20470;-72
2022/01/01 05:03:30;;;;;;;12.07;6.97;;;11.60;99.90;;;;;;5049657;28;20414;-72
2022/01/01 05:06:15;;;;;;;12.87;7.70;;;11.70;99.90;;;;;;5054550;28;20406;-72
2022/01/01 05:09:03;;;;;;;13.33;7.57;;;11.70;99.90;;;;;;5054184;28;20505;-72
2022/01/01 05:11:49;;;;;;;11.70;8.83;;;11.70;99.90;;;;;;5039095;28;20464;-73
2022/01/01 05:14:35;;;;;;;12.40;8.33;;;11.80;99.90;;;;;;5034069;28;20420;-73
2022/01/01 05:17:21;;;;;;;14.47;9.43;;;11.80;99.90;;;;;;5034259;28;20451;-74
2022/01/01 05:20:08;;;;;;;12.13;7.70;;;11.90;99.90;;;;;;5034827;28;20441;-74
2022/01/01 05:22:53;;;;;;;12.70;8.23;;;11.90;99.90;;;;;;5033911;28;20462;-74
2022/01/01 05:25:40;;;;;;;13.60;8.83;;;11.90;99.90;;;;;;5034191;28;20443;-74
2022/01/01 05:28:26;;;;;;;10.93;8.27;;;11.90;99.90;;;;;;5045821;28;20833;-74
2022/01/01 05:31:12;;;;;;;15.00;8.13;;;11.90;99.90;;;;;;5051351;28;20843;-74
2022/01/01 05:33:57;;;;;;;12.80;7.50;;;12.00;99.90;;;;;;5054156;28;20513;-74
2022/01/01 05:36:43;;;;;;;10.87;8.50;;;12.00;99.90;;;;;;5054165;28;20423;-74
2022/01/01 05:39:28;;;;;;;10.97;8.13;;;12.10;99.90;;;;;;5053954;28;20936;-72
2022/01/01 05:42:15;;;;;;;14.23;8.20;;;12.10;99.90;;;;;;5035315;28;20959;-72
2022/01/01 05:45:01;;;;;;;10.67;7.30;;;12.00;99.90;;;;;;5033508;28;20560;-72
2022/01/01 05:47:46;;;;;;;11.20;6.60;;;11.90;99.90;;;;;;5033993;28;20780;-72
2022/01/01 05:50:32;;;;;;;9.60;6.70;;;11.90;99.90;;;;;;5039314;28;20569;-72
2022/01/01 05:53:19;;;;;;;10.47;7.00;;;11.90;99.90;;;;;;5053072;28;20389;-72
2022/01/01 05:56:04;;;;;;;12.30;7.80;;;11.90;99.90;;;;;;5054453;28;20464;-72
2022/01/01 05:58:51;;;;;;;9.00;6.53;;;11.90;99.90;;;;;;5053269;28;20414;-72
2022/01/01 06:01:37;;;;;;;12.33;7.87;;;11.90;99.90;;;;;;5036711;28;21056;-72
2022/01/01 06:04:22;;;;;;;12.20;7.23;;;11.90;99.90;;;;;;5032068;28;20890;-72
2022/01/01 06:07:10;;;;;;;13.13;7.63;;;11.90;99.90;;;;;;5033289;28;20487;-72
2022/01/01 06:09:56;;;;;;;13.33;8.20;;;11.90;99.90;;;;;;5036445;28;20445;-72
2022/01/01 06:12:41;;;;;;;10.93;7.80;;;11.90;99.90;;;;;;5052562;28;20390;-72
2022/01/01 06:15:29;;;;;;;10.37;7.67;;;11.90;99.90;;;;;;5053201;28;20418;-72
2022/01/01 06:18:14;;;;;;;12.13;8.10;;;11.90;99.90;;;;;;5052810;28;20757;-72
2022/01/01 06:21:02;;;;;;;11.00;7.73;;;11.80;99.90;;;;;;5039113;28;20454;-72
2022/01/01 06:23:48;;;;;;;11.03;7.73;;;11.80;99.90;;;;;;5032466;28;20428;-72
2022/01/01 06:26:33;;;;;;;10.20;6.97;;;11.80;99.90;;;;;;5039812;28;20462;-72
2022/01/01 06:29:19;;;;;;;10.13;6.80;;;11.80;99.90;;;;;;5050353;28;20545;-72
2022/01/01 06:32:07;;;;;;;13.60;6.90;;;11.70;99.90;;;;;;5032645;28;20544;-72
2022/01/01 06:34:53;;;;;;;11.40;7.50;;;11.70;99.90;;;;;;5032661;28;20395;-72
2022/01/01 06:37:39;;;;;;;10.17;7.80;;;11.70;99.90;;;;;;5033065;28;20507;-72
2022/01/01 06:40:24;;;;;;;11.40;7.47;;;11.70;99.90;;;;;;5043343;28;20457;-72
2022/01/01 06:43:11;;;;;;;12.83;6.20;;;11.70;99.90;;;;;;5052116;28;20442;-72
2022/01/01 06:45:57;;;;;;;14.50;7.37;;;11.60;99.90;;;;;;5052597;28;20427;-72
2022/01/01 06:48:44;;;;;;;14.50;7.27;;;11.60;99.90;;;;;;5052251;28;20543;-72
2022/01/01 06:51:32;;;;;;;12.17;7.60;;;11.60;99.90;;;;;;5033013;28;20409;-72
2022/01/01 06:54:17;;;;;;;10.10;6.20;;;11.60;99.90;;;;;;5032202;28;20399;-72
2022/01/01 06:57:03;;;;;;;10.63;6.77;;;11.60;99.90;;;;;;5043667;28;20501;-72
2022/01/01 06:59:49;;;;;;;13.20;7.13;;;11.60;99.90;;;;;;5042910;28;20467;-72
2022/01/01 07:02:39;;;;;;;9.13;7.10;;;11.60;99.90;;;;;;5031671;28;20898;-72
2022/01/01 07:05:27;;;;;;;11.17;7.63;;;11.60;99.90;;;;;;5032135;28;21049;-72
2022/01/01 07:08:12;;;;;;;12.73;6.60;;;11.60;99.90;;;;;;5032140;28;20448;-71
2022/01/01 07:10:58;;;;;;;9.17;7.07;;;11.50;99.90;;;;;;5034082;28;20457;-72
2022/01/01 07:13:44;;;;;;;8.63;6.93;;;11.50;99.90;;;;;;5031794;28;20440;-72
2022/01/01 07:16:29;;;;;;;10.00;6.90;;;11.50;99.90;;;;;;5031763;28;20870;-71
2022/01/01 07:19:15;;;;;;;11.87;7.10;;;11.50;99.90;;;;;;5033508;28;20497;-72
2022/01/01 07:22:02;;;;;;;12.90;6.97;;;11.50;99.90;;;;;;5031522;28;20993;-72
2022/01/01 07:24:49;;;;;;;11.13;7.03;;;11.40;99.90;;;;;;5031999;28;20800;-71
2022/01/01 07:27:35;;;;;;;10.73;6.57;;;11.40;99.90;;;;;;5047199;28;20987;-72
2022/01/01 07:30:21;;;;;;;10.87;6.10;;;11.40;99.90;;;;;;5049084;28;20486;-72
2022/01/01 07:33:06;;;;;;;10.23;6.40;;;11.40;99.90;;;;;;5051240;28;20415;-72
2022/01/01 07:35:53;;;;;;;11.17;6.87;;;11.40;99.90;;;;;;5050807;28;20428;-72
2022/01/01 07:38:40;;;;;;;7.97;6.33;;;11.40;99.90;;;;;;5049186;28;20836;-72
2022/01/01 07:41:26;;;;;;;12.07;7.20;;;11.40;99.90;;;;;;5031655;28;20444;-72
2022/01/01 07:44:13;;;;;;;14.27;7.10;;;11.40;99.90;;;;;;5031686;28;20480;-72
2022/01/01 07:46:58;;;;;;;12.57;8.20;;;11.40;99.90;;;;;;5031848;28;20432;-72
2022/01/01 07:49:44;;;;;;;12.00;8.50;;;11.30;99.90;;;;;;5033226;28;20480;-71
2022/01/01 07:52:29;;;;;;;16.27;8.23;;;11.40;99.90;;;;;;5031325;28;20416;-71
2022/01/01 07:55:16;;;;;;;13.50;8.87;;;11.50;99.90;;;;;;5031579;28;20424;-72
2022/01/01 07:58:05;;;;;;;20.90;9.60;;;11.60;99.90;;;;;;5048654;28;20995;-72
2022/01/01 08:00:50;;;;;;;12.10;8.00;;;11.60;99.90;;;;;;5031410;28;20445;-72
2022/01/01 08:03:36;;;;;;;11.73;8.10;;;11.70;99.90;;;;;;5029685;28;20971;-72
2022/01/01 08:06:21;;;;;;;12.40;8.83;;;11.70;99.90;;;;;;5031689;28;20419;-72
2022/01/01 08:09:07;;;;;;;11.47;7.10;;;11.70;99.90;;;;;;5032867;28;20826;-72
2022/01/01 08:11:55;;;;;;;18.27;9.17;;;11.80;99.90;;;;;;5031293;28;20770;-72
2022/01/01 08:14:40;;;;;;;11.47;8.77;;;11.90;99.90;;;;;;5031364;28;20424;-72
2022/01/01 08:17:26;;;;;;;15.03;9.60;;;11.90;99.90;;;;;;5031447;28;20787;-72
2022/01/01 08:20:12;;;;;;;14.63;10.17;;;11.90;99.90;;;;;;5032208;28;20448;-72
2022/01/01 08:22:57;;;;;;;19.77;10.03;;;11.80;99.90;;;;;;5030965;28;20438;-72
2022/01/01 08:25:43;;;;;;;13.83;9.90;;;11.80;99.90;;;;;;5031201;28;20515;-72
2022/01/01 08:28:30;;;;;;;13.80;8.90;;;11.90;99.90;;;;;;5039669;28;20443;-71
2022/01/01 08:31:16;;;;;;;15.63;10.33;;;11.90;99.90;;;;;;5059480;22;20454;-74
2022/01/01 08:34:01;;;;;;;21.77;9.80;;;11.90;99.90;;;;;;5051543;28;20830;-74
2022/01/01 08:36:47;;;;;;;18.83;8.60;;;11.90;99.90;;;;;;5051297;28;20439;-74
2022/01/01 08:39:33;;;;;;;13.50;8.73;;;12.00;99.90;;;;;;5048855;28;20850;-73
2022/01/01 08:42:19;;;;;;;11.73;8.13;;;12.00;99.90;;;;;;5030872;28;20488;-74
2022/01/01 08:45:07;;;;;;;15.07;10.00;;;12.10;99.90;;;;;;5031742;28;20424;-74
2022/01/01 08:47:53;;;;;;;14.67;9.90;;;12.00;99.90;;;;;;5031618;28;20459;-74
2022/01/01 08:50:38;;;;;;;17.73;8.90;;;12.10;99.90;;;;;;5035177;28;20516;-74
2022/01/01 08:53:24;;;;;;;16.90;9.20;;;12.10;99.90;;;;;;5034633;28;20399;-73
2022/01/01 08:56:09;;;;;;;16.77;9.50;;;12.10;99.90;;;;;;5036111;28;20507;-74
2022/01/01 08:58:55;;;;;;;12.00;8.60;;;12.00;99.90;;;;;;5027956;28;20818;-74
2022/01/01 09:01:42;;;;;;;14.60;9.50;;;12.00;99.90;;;;;;5034305;28;20444;-74
2022/01/01 09:04:28;;;;;;;15.30;10.20;;;12.00;99.90;;;;;;5033137;28;20433;-74
2022/01/01 09:07:13;;;;;;;12.67;8.80;;;12.00;99.90;;;;;;5032368;28;20498;-74
2022/01/01 09:10:01;;;;;;;11.80;8.30;;;12.10;99.90;;;;;;5014827;28;20430;-74
2022/01/01 09:12:46;;;;;;;13.87;9.20;;;12.10;99.90;;;;;;5014837;28;20463;-74
2022/01/01 09:15:32;;;;;;;14.00;8.50;;;12.20;99.90;;;;;;5014730;28;20413;-74
2022/01/01 09:18:19;;;;;;;11.77;8.47;;;12.30;99.90;;;;;;5024426;28;20423;-73
2022/01/01 09:21:04;;;;;;;29.53;9.67;;;12.30;99.90;;;;;;5034530;28;20449;-74
2022/01/01 09:23:50;;;;;;;14.43;8.13;;;12.40;99.90;;;;;;5033866;28;20933;-74
2022/01/01 09:26:35;;;;;;;10.47;7.87;;;12.40;99.90;;;;;;5035622;28;20402;-74
2022/01/01 09:29:21;;;;;;;12.67;8.23;;;12.50;99.90;;;;;;5026568;28;20424;-74
2022/01/01 09:32:07;;;;;;;14.10;8.10;;;12.60;99.90;;;;;;5033959;28;20539;-74
2022/01/01 09:34:55;;;;;;;16.57;7.73;;;12.60;99.90;;;;;;5034500;28;20945;-74
2022/01/01 09:37:40;;;;;;;13.83;6.50;;;12.60;99.90;;;;;;5025051;28;20468;-74
2022/01/01 09:40:26;;;;;;;13.10;7.73;;;12.70;99.90;;;;;;5014126;28;20436;-74
2022/01/01 09:43:13;;;;;;;13.13;7.10;;;12.70;99.90;;;;;;5014237;28;20468;-74
2022/01/01 09:46:01;;;;;;;12.33;6.33;;;12.70;99.90;;;;;;5014267;28;20404;-74
2022/01/01 09:48:47;;;;;;;9.03;6.53;;;12.70;99.90;;;;;;5015244;28;20448;-73
2022/01/01 09:51:35;;;;;;;16.23;6.67;;;12.80;99.90;;;;;;5013744;28;20554;-73
2022/01/01 09:54:20;;;;;;;13.27;7.27;;;12.90;99.90;;;;;;5017100;28;20420;-73
2022/01/01 09:57:06;;;;;;;9.30;6.03;;;12.90;99.90;;;;;;5032873;28;20974;-74
2022/01/01 09:59:52;;;;;;;11.53;6.60;;;12.80;99.90;;;;;;5028771;28;20450;-74
2022/01/01 10:02:38;;;;;;;8.30;6.10;;;12.90;99.90;;;;;;5033243;28;20446;-74
2022/01/01 10:05:23;;;;;;;8.10;5.30;;;12.90;99.90;;;;;;5031130;28;20495;-73
2022/01/01 10:08:12;;;;;;;9.27;5.63;;;13.00;99.90;;;;;;5031161;28;20452;-74
2022/01/01 10:10:58;;;;;;;10.53;5.63;;;13.10;99.90;;;;;;5033567;28;20411;-74
2022/01/01 10:13:44;;;;;;;10.13;5.40;;;13.10;99.90;;;;;;5033062;28;20424;-74
2022/01/01 10:16:30;;;;;;;9.20;5.10;;;13.10;99.90;;;;;;5030545;28;20448;-73
2022/01/01 10:19:15;;;;;;;14.87;5.93;;;13.10;99.90;;;;;;5013470;28;20565;-74
2022/01/01 10:22:06;;;;;;;8.53;4.60;;;13.10;99.90;;;;;;5013221;28;20911;-73
2022/01/01 10:28:08;;;;;;;8.63;4.83;;;13.20;99.90;;;;;;5024051;28;20434;-74
2022/01/01 10:30:57;;;;;;;7.70;4.73;;;13.20;99.90;;;;;;5033120;28;21025;-74
2022/01/01 10:33:46;;;;;;;12.73;5.53;;;13.20;99.90;;;;;;5032778;28;20482;-74
2022/01/01 10:36:31;;;;;;;7.90;5.77;;;13.20;99.90;;;;;;5028337;28;20423;-74
2022/01/01 10:39:19;;;;;;;9.47;5.40;;;13.30;99.90;;;;;;5013100;28;20953;-73
2022/01/01 10:42:13;;;;;;;7.00;5.00;;;13.30;99.90;;;;;;5012822;28;20520;-73
2022/01/01 10:44:59;;;;;;;11.47;7.00;;;13.30;99.90;;;;;;5013115;28;20504;-74
2022/01/01 10:47:44;;;;;;;10.53;6.90;;;13.30;99.90;;;;;;5028902;28;20434;-74
2022/01/01 10:50:33;;;;;;;11.60;6.73;;;13.30;99.90;;;;;;5032642;28;20457;-74
2022/01/01 10:53:22;;;;;;;13.40;6.40;;;13.30;99.90;;;;;;5032289;28;20392;-74
2022/01/01 10:56:18;;;;;;;11.43;6.50;;;13.30;99.90;;;;;;5029617;28;20481;-74
2022/01/01 10:59:09;;;;;;;13.10;7.20;;;13.30;99.90;;;;;;5032683;28;20435;-73
2022/01/01 11:01:57;;;;;;;10.00;6.60;;;13.30;99.90;;;;;;5032191;28;20531;-74
2022/01/01 11:04:44;;;;;;;14.43;8.50;;;13.30;99.90;;;;;;5031117;28;20379;-73
2022/01/01 11:07:29;;;;;;;10.73;6.80;;;13.30;99.90;;;;;;5016024;28;20992;-73
2022/01/01 11:10:17;;;;;;;9.97;7.00;;;13.20;99.90;;;;;;5012548;28;20523;-73
2022/01/01 11:13:05;;;;;;;13.40;7.63;;;13.10;99.90;;;;;;5012444;28;20410;-74
2022/01/01 11:15:53;;;;;;;10.87;7.67;;;13.10;99.90;;;;;;5014589;28;20595;-74
2022/01/01 11:18:39;;;;;;;13.70;7.43;;;13.00;99.90;;;;;;5012634;28;20425;-73
2022/01/01 11:21:25;;;;;;;10.53;7.23;;;12.90;99.90;;;;;;5012512;28;20837;-74
2022/01/01 11:24:12;;;;;;;14.07;7.77;;;12.90;99.90;;;;;;5012397;28;20969;-74
2022/01/01 11:26:59;;;;;;;11.43;7.53;;;12.80;99.90;;;;;;5023507;28;20430;-75
2022/01/01 11:29:50;;;;;;;11.67;7.43;;;12.90;99.90;;;;;;5026787;28;20424;-74
2022/01/01 11:32:44;;;;;;;13.20;7.73;;;12.90;99.90;;;;;;5031772;28;20971;-74
2022/01/01 11:35:31;;;;;;;11.13;7.33;;;13.00;99.90;;;;;;5028367;28;20605;-74
2022/01/01 11:38:18;;;;;;;15.20;7.57;;;13.00;99.90;;;;;;5012333;28;20426;-74
2022/01/01 11:41:06;;;;;;;14.00;8.43;;;13.10;99.90;;;;;;5012218;28;20546;-74
2022/01/01 11:43:53;;;;;;;11.40;7.70;;;13.00;99.90;;;;;;5011839;28;20812;-74
2022/01/01 11:46:57;;;;;;;16.70;9.40;;;12.90;99.90;;;;;;5014291;28;20431;-74
2022/01/01 11:49:44;;;;;;;12.57;8.73;;;12.90;99.90;;;;;;5011848;28;20399;-74
2022/01/01 11:52:37;;;;;;;14.07;8.50;;;12.90;99.90;;;;;;5022691;28;20768;-74
2022/01/01 11:55:23;;;;;;;16.70;8.00;;;13.00;99.90;;;;;;5029131;28;20423;-74
2022/01/01 11:58:13;;;;;;;11.93;8.20;;;13.00;99.90;;;;;;5032761;28;20940;-73
2022/01/01 12:00:59;;;;;;;10.50;7.57;;;13.10;99.90;;;;;;5031729;28;20415;-74
2022/01/01 12:03:52;;;;;;;10.17;6.30;;;13.10;99.90;;;;;;5030328;28;20825;-74
2022/01/01 12:06:40;;;;;;;13.00;7.13;;;13.10;99.90;;;;;;5013808;28;20449;-74
2022/01/01 12:09:25;;;;;;;12.87;8.57;;;13.20;99.90;;;;;;5012169;28;20830;-74
2022/01/01 12:12:11;;;;;;;15.97;8.13;;;13.20;99.90;;;;;;5011874;28;20471;-74
2022/01/01 12:14:57;;;;;;;11.37;7.83;;;13.30;99.90;;;;;;5016911;28;20414;-74
2022/01/01 12:17:43;;;;;;;17.03;9.37;;;13.30;99.90;;;;;;5031796;28;20434;-74
2022/01/01 12:20:31;;;;;;;11.80;7.37;;;13.30;99.90;;;;;;5031577;28;20443;-74
2022/01/01 12:23:20;;;;;;;11.00;7.33;;;13.30;99.90;;;;;;5034725;28;20471;-74
2022/01/01 12:26:09;;;;;;;12.40;7.77;;;13.30;99.90;;;;;;5034109;28;20423;-74
2022/01/01 12:29:01;;;;;;;12.47;8.67;;;13.20;99.90;;;;;;5035444;28;20428;-73
2022/01/01 12:31:56;;;;;;;11.53;8.03;;;13.20;99.90;;;;;;5035219;28;20580;-74
2022/01/01 12:34:41;;;;;;;12.10;7.60;;;13.20;99.90;;;;;;5030165;28;20866;-74
2022/01/01 12:37:36;;;;;;;11.80;8.27;;;13.30;99.90;;;;;;5015338;28;20429;-74
2022/01/01 12:40:26;;;;;;;9.97;7.70;;;13.30;99.90;;;;;;5015522;28;20483;-74
2022/01/01 12:43:12;;;;;;;13.20;8.13;;;13.20;99.90;;;;;;5014841;28;20439;-74
2022/01/01 12:45:59;;;;;;;11.90;8.00;;;13.30;99.90;;;;;;5017506;28;20985;-73
2022/01/01 12:48:45;;;;;;;12.37;8.60;;;13.30;99.90;;;;;;5015408;28;20472;-74
2022/01/01 12:51:36;;;;;;;14.20;7.63;;;13.30;99.90;;;;;;5029762;28;20511;-74
2022/01/01 12:54:22;;;;;;;10.00;6.53;;;13.30;99.90;;;;;;5032400;28;20423;-74
2022/01/01 12:57:09;;;;;;;11.27;7.60;;;13.40;99.90;;;;;;5036217;28;20436;-74
2022/01/01 12:59:55;;;;;;;10.63;7.83;;;13.50;99.90;;;;;;5034810;28;20448;-74
2022/01/01 13:02:41;;;;;;;13.00;8.20;;;13.50;99.90;;;;;;5034407;28;20415;-73
2022/01/01 13:05:27;;;;;;;12.80;7.93;;;13.60;99.90;;;;;;5019405;28;20449;-73
2022/01/01 13:08:12;;;;;;;12.70;7.40;;;13.90;99.90;;;;;;5015007;28;20930;-73
2022/01/01 13:10:58;;;;;;;14.87;8.43;;;14.30;99.90;;;;;;5014920;28;20419;-74
2022/01/01 13:13:45;;;;;;;13.37;7.43;;;14.50;99.90;;;;;;5016696;28;20490;-74
2022/01/01 13:16:32;;;;;;;11.90;6.23;;;15.10;99.90;;;;;;5014594;28;20437;-74
2022/01/01 13:19:18;;;;;;;11.53;7.07;;;16.10;99.90;;;;;;5014903;28;20897;-74
2022/01/01 13:22:07;;;;;;;9.40;6.13;;;16.80;99.90;;;;;;5014259;28;20391;-74
2022/01/01 13:24:53;;;;;;;8.80;6.30;;;16.90;99.90;;;;;;5016543;28;20965;-74
2022/01/01 13:27:39;;;;;;;11.90;6.10;;;16.50;99.90;;;;;;5030076;28;20407;-74
2022/01/01 13:30:26;;;;;;;8.37;5.47;;;16.20;99.90;;;;;;5033916;28;20866;-74
2022/01/01 13:33:15;;;;;;;11.23;6.00;;;15.90;99.90;;;;;;5030456;28;20426;-74
2022/01/01 13:36:03;;;;;;;10.17;6.10;;;15.50;99.90;;;;;;5034138;28;20399;-74
2022/01/01 13:38:49;;;;;;;9.03;6.20;;;15.30;99.90;;;;;;5034255;28;20482;-74
2022/01/01 13:41:37;;;;;;;8.27;5.80;;;15.00;99.90;;;;;;5033839;28;20447;-73
2022/01/01 13:44:24;;;;;;;8.07;5.57;;;14.90;99.90;;;;;;5021416;28;20486;-73
2022/01/01 13:47:15;;;;;;;8.27;5.50;;;14.80;99.90;;;;;;5014177;28;20921;-74
2022/01/01 13:50:13;;;;;;;8.40;5.73;;;14.70;99.90;;;;;;5027989;28;20423;-74
2022/01/01 13:53:04;;;;;;;8.03;5.53;;;14.60;99.90;;;;;;5031023;28;20449;-74
2022/01/01 13:55:56;;;;;;;11.43;5.40;;;14.60;99.90;;;;;;5014015;28;21008;-74
2022/01/01 13:58:42;;;;;;;11.53;6.30;;;14.60;99.90;;;;;;5028096;28;20430;-74
2022/01/01 14:01:28;;;;;;;7.53;4.70;;;14.50;99.90;;;;;;5033813;28;20467;-74
2022/01/01 14:04:15;;;;;;;9.53;5.53;;;14.40;99.90;;;;;;5027574;28;20805;-74
2022/01/01 14:07:06;;;;;;;7.90;4.80;;;14.40;99.90;;;;;;5014103;28;20918;-74
2022/01/01 14:10:03;;;;;;;9.40;5.20;;;14.40;99.90;;;;;;5013728;28;20437;-74
2022/01/01 14:12:50;;;;;;;8.37;4.80;;;14.40;99.90;;;;;;5015261;28;20419;-73
2022/01/01 14:15:37;;;;;;;6.97;4.80;;;14.40;99.90;;;;;;5013161;28;20483;-74
2022/01/01 14:18:33;;;;;;;6.20;4.60;;;14.30;99.90;;;;;;5013663;28;20528;-74